Time;durP1;ratioP1;P1;durP2;ratioP2;P2;SDS_P1;SDS_P2;PMS_P1;PMS_P2;Temp;Humidity;BMP_temperature;BMP_pressure;BME280_temperature;BME280_humidity;BME280_pressure;Samples;Min_cycle;Max_cycle;Signal;HPM_P1;HPM_P2
2023/10/15 00:01:52;;;;;;;5.80;3.80;;;12.90;99.90;;;;;;4973929;28;20437;-68
2023/10/15 00:04:17;;;;;;;8.07;4.30;;;12.90;99.90;;;;;;4973322;28;20779;-68
2023/10/15 00:06:43;;;;;;;5.87;3.70;;;13.00;99.90;;;;;;4974364;28;20431;-68
2023/10/15 00:09:09;;;;;;;3.97;3.67;;;13.00;99.90;;;;;;4974087;28;20171;-68
2023/10/15 00:11:36;;;;;;;5.00;3.50;;;13.00;99.90;;;;;;4974574;28;20176;-68
2023/10/15 00:14:05;;;;;;;3.43;3.10;;;13.00;99.90;;;;;;4974401;28;20520;-68
2023/10/15 00:16:32;;;;;;;4.77;4.00;;;12.90;99.90;;;;;;4973975;28;20553;-68
2023/10/15 00:19:04;;;;;;;7.43;3.73;;;12.90;99.90;;;;;;4973976;28;20512;-69
2023/10/15 00:21:30;;;;;;;5.47;3.83;;;12.90;99.90;;;;;;4974145;28;20397;-68
2023/10/15 00:23:56;;;;;;;4.70;3.90;;;12.80;99.90;;;;;;4973217;28;20471;-68
2023/10/15 00:26:21;;;;;;;3.97;3.53;;;12.70;99.90;;;;;;4973017;28;20254;-67
2023/10/15 00:28:47;;;;;;;3.40;3.10;;;12.70;99.90;;;;;;4974434;28;20172;-68
2023/10/15 00:31:16;;;;;;;3.73;3.43;;;12.70;99.90;;;;;;4962797;28;20645;-68
2023/10/15 00:33:42;;;;;;;4.67;3.47;;;12.60;99.90;;;;;;4974254;28;20169;-69
2023/10/15 00:36:14;;;;;;;7.03;4.50;;;12.60;99.90;;;;;;4973604;28;20794;-68
2023/10/15 00:38:43;;;;;;;4.53;3.90;;;12.60;99.90;;;;;;4974488;28;20734;-68
2023/10/15 00:41:13;;;;;;;4.30;3.60;;;12.50;99.90;;;;;;4954291;29;20560;-68
2023/10/15 00:43:55;;;;;;;8.33;5.80;;;12.50;99.90;;;;;;4954879;29;20422;-68
2023/10/15 00:46:27;;;;;;;5.33;4.10;;;12.50;99.90;;;;;;4954293;29;20903;-69
2023/10/15 00:48:56;;;;;;;6.30;3.70;;;12.50;99.90;;;;;;4954782;29;20409;-68
2023/10/15 00:51:23;;;;;;;5.13;3.73;;;12.50;99.90;;;;;;4954101;29;20495;-68
2023/10/15 00:53:58;;;;;;;3.80;3.50;;;12.50;99.90;;;;;;4969841;28;20428;-69
2023/10/15 00:56:33;;;;;;;4.20;3.80;;;12.50;99.90;;;;;;4973380;28;20471;-68
2023/10/15 01:01:38;;;;;;;4.90;4.27;;;12.40;99.90;;;;;;4973255;28;20435;-69
2023/10/15 01:04:09;;;;;;;4.17;3.93;;;12.40;99.90;;;;;;4974001;28;20471;-68
2023/10/15 01:06:40;;;;;;;4.83;4.27;;;12.40;99.90;;;;;;4973110;28;20447;-68
2023/10/15 01:09:18;;;;;;;4.20;3.90;;;12.30;99.90;;;;;;4956311;28;20442;-64
2023/10/15 01:11:51;;;;;;;4.00;3.60;;;12.30;99.90;;;;;;4973299;28;20421;-69
2023/10/15 01:17:00;;;;;;;6.90;4.10;;;12.40;99.90;;;;;;4972620;28;20856;-68
2023/10/15 01:19:33;;;;;;;3.60;3.30;;;12.40;99.90;;;;;;4972886;28;20398;-68
2023/10/15 01:22:04;;;;;;;5.30;3.50;;;12.40;99.90;;;;;;4973103;28;20461;-68
2023/10/15 01:24:36;;;;;;;7.63;4.23;;;12.30;99.90;;;;;;4955617;28;20913;-69
2023/10/15 01:29:34;;;;;;;3.77;3.53;;;12.30;99.90;;;;;;4972608;28;20435;-69
2023/10/15 01:32:10;;;;;;;4.43;4.03;;;12.30;99.90;;;;;;4973536;28;20447;-69
2023/10/15 01:34:37;;;;;;;7.73;4.00;;;12.30;99.90;;;;;;4973806;28;20406;-69
2023/10/15 01:37:13;;;;;;;11.17;4.07;;;12.30;99.90;;;;;;4972314;28;20464;-69
2023/10/15 01:39:39;;;;;;;5.03;4.30;;;12.30;99.90;;;;;;4973637;28;20412;-69
2023/10/15 01:42:06;;;;;;;4.17;3.80;;;12.40;99.90;;;;;;4973235;28;20432;-69
2023/10/15 01:44:33;;;;;;;6.20;4.30;;;12.40;99.90;;;;;;4955623;28;20772;-68
2023/10/15 01:49:31;;;;;;;4.10;3.73;;;12.40;99.90;;;;;;4976414;28;20415;-68
2023/10/15 01:52:10;;;;;;;4.23;3.83;;;12.40;99.90;;;;;;4977270;28;20455;-69
2023/10/15 01:54:36;;;;;;;6.60;4.63;;;12.40;99.90;;;;;;4977441;28;20405;-69
2023/10/15 01:57:06;;;;;;;6.20;4.40;;;12.40;99.90;;;;;;4976739;28;20464;-69
2023/10/15 01:59:43;;;;;;;4.30;3.90;;;12.40;99.90;;;;;;4976234;28;20420;-69
2023/10/15 02:02:13;;;;;;;6.00;4.03;;;12.30;99.90;;;;;;4976475;28;20453;-68
2023/10/15 02:04:44;;;;;;;6.03;4.03;;;12.30;99.90;;;;;;4976759;28;20396;-69
2023/10/15 02:07:13;;;;;;;4.90;3.77;;;12.30;99.90;;;;;;4956903;28;20428;-62
2023/10/15 02:09:39;;;;;;;4.37;3.97;;;12.30;99.90;;;;;;4976485;28;20444;-68
2023/10/15 02:12:07;;;;;;;4.73;4.33;;;12.30;99.90;;;;;;4976211;28;20780;-67
2023/10/15 02:14:34;;;;;;;5.30;3.80;;;12.30;99.90;;;;;;4975705;28;20420;-68
2023/10/15 02:17:02;;;;;;;11.37;5.43;;;12.40;99.90;;;;;;4976530;28;20452;-68
2023/10/15 02:22:06;;;;;;;3.97;3.67;;;12.40;99.90;;;;;;4976460;28;20495;-68
2023/10/15 02:24:34;;;;;;;7.53;4.00;;;12.40;99.90;;;;;;4975167;28;20404;-68
2023/10/15 02:27:06;;;;;;;4.27;3.87;;;12.50;99.90;;;;;;4976008;28;20808;-69
2023/10/15 02:32:07;;;;;;;4.00;3.70;;;12.60;99.90;;;;;;4976297;28;20433;-69
2023/10/15 02:34:40;;;;;;;6.10;4.00;;;12.70;99.90;;;;;;4975258;28;20744;-69
2023/10/15 02:37:10;;;;;;;5.13;3.90;;;12.70;99.90;;;;;;4975336;28;20465;-68
2023/10/15 02:39:39;;;;;;;6.00;4.57;;;12.80;99.90;;;;;;4975085;28;20421;-69
2023/10/15 02:42:05;;;;;;;9.47;6.53;;;12.90;99.90;;;;;;4975612;28;20480;-68
2023/10/15 02:44:33;;;;;;;7.60;6.60;;;13.00;99.90;;;;;;4974696;28;21001;-68
2023/10/15 02:49:59;;;;;;;8.87;8.07;;;13.00;99.90;;;;;;4975850;28;20401;-68
2023/10/15 02:52:35;;;;;;;8.70;8.10;;;13.00;99.90;;;;;;4974929;28;20550;-68
2023/10/15 02:55:09;;;;;;;10.57;9.10;;;13.00;99.90;;;;;;4975674;28;20423;-68
2023/10/15 02:57:38;;;;;;;10.37;9.50;;;13.00;99.90;;;;;;4973687;28;20424;-69
2023/10/15 03:00:28;;;;;;;10.60;9.70;;;13.00;99.90;;;;;;4967446;28;20482;-69
2023/10/15 03:02:58;;;;;;;9.50;8.73;;;13.00;99.90;;;;;;4956294;29;20404;-69
2023/10/15 03:05:42;;;;;;;11.33;9.33;;;12.90;99.90;;;;;;4956570;28;20468;-68
2023/10/15 03:08:17;;;;;;;9.50;8.70;;;13.00;99.90;;;;;;4973812;28;20475;-69
2023/10/15 03:10:48;;;;;;;9.20;8.50;;;13.00;99.90;;;;;;4972087;28;20975;-66
2023/10/15 03:13:18;;;;;;;10.30;8.43;;;13.00;99.90;;;;;;4972778;28;20802;-61
2023/10/15 03:15:50;;;;;;;9.87;8.97;;;13.00;99.90;;;;;;4975668;28;20455;-69
2023/10/15 03:18:22;;;;;;;12.20;9.30;;;13.00;99.90;;;;;;4975026;28;20397;-67
2023/10/15 03:20:49;;;;;;;9.50;8.57;;;13.00;99.90;;;;;;4975070;28;20412;-68
2023/10/15 03:23:17;;;;;;;11.93;8.83;;;12.90;99.90;;;;;;4966350;28;20494;-67
2023/10/15 03:25:43;;;;;;;9.37;8.47;;;13.00;99.90;;;;;;4956002;29;20773;-68
2023/10/15 03:28:12;;;;;;;9.97;9.00;;;13.00;99.90;;;;;;4956397;28;20470;-69
2023/10/15 03:30:44;;;;;;;11.00;10.10;;;13.00;99.90;;;;;;4955520;28;20414;-67
2023/10/15 03:33:13;;;;;;;10.40;9.40;;;12.90;99.90;;;;;;4975445;28;20397;-68
2023/10/15 03:35:43;;;;;;;11.80;9.77;;;12.90;99.90;;;;;;4974416;28;20975;-68
2023/10/15 03:38:23;;;;;;;13.87;9.60;;;13.00;99.90;;;;;;4975041;28;20418;-68
2023/10/15 03:40:50;;;;;;;10.50;9.60;;;13.00;99.90;;;;;;4975377;28;20395;-68
2023/10/15 03:43:20;;;;;;;9.67;8.77;;;13.00;99.90;;;;;;4974066;28;20589;-62
2023/10/15 03:45:52;;;;;;;10.83;9.87;;;13.00;99.90;;;;;;4975095;28;20490;-69
2023/10/15 03:48:27;;;;;;;9.13;8.43;;;13.00;99.90;;;;;;4974251;28;20419;-68
2023/10/15 03:50:53;;;;;;;10.53;9.47;;;12.90;99.90;;;;;;4974741;28;20414;-68
2023/10/15 03:53:21;;;;;;;11.20;10.13;;;13.00;99.90;;;;;;4965923;28;20760;-68
2023/10/15 03:55:50;;;;;;;10.33;9.33;;;13.00;99.90;;;;;;4955453;29;20513;-68
2023/10/15 03:58:18;;;;;;;11.00;9.93;;;12.90;99.90;;;;;;4955055;29;20410;-64
2023/10/15 04:00:47;;;;;;;9.43;8.63;;;12.90;99.90;;;;;;4955549;29;20410;-68
2023/10/15 04:03:25;;;;;;;9.80;8.80;;;12.90;99.90;;;;;;4955615;29;20442;-68
2023/10/15 04:06:05;;;;;;;10.03;9.03;;;12.90;99.90;;;;;;4955234;29;20411;-68
2023/10/15 04:08:31;;;;;;;9.83;8.33;;;12.90;99.90;;;;;;4954410;28;20465;-68
2023/10/15 04:10:58;;;;;;;9.80;8.90;;;12.90;99.90;;;;;;4955294;29;20421;-68
2023/10/15 04:13:27;;;;;;;9.70;8.80;;;12.90;99.90;;;;;;4968467;28;20572;-68
2023/10/15 04:15:54;;;;;;;9.77;8.83;;;12.90;99.90;;;;;;4973895;28;20810;-69
2023/10/15 04:18:24;;;;;;;11.10;9.43;;;12.90;99.90;;;;;;4962909;28;20909;-68
2023/10/15 04:20:54;;;;;;;10.87;9.70;;;12.90;99.90;;;;;;4955269;29;20407;-68
2023/10/15 04:23:34;;;;;;;9.80;9.07;;;12.90;99.90;;;;;;4954607;29;20743;-67
2023/10/15 04:26:12;;;;;;;9.00;8.20;;;12.90;99.90;;;;;;4955565;29;20593;-68
2023/10/15 04:28:41;;;;;;;8.30;7.60;;;12.90;99.90;;;;;;4954610;28;20588;-69
2023/10/15 04:31:21;;;;;;;8.87;8.03;;;12.90;99.90;;;;;;4956095;28;20438;-68
2023/10/15 04:33:50;;;;;;;8.67;7.70;;;12.90;99.90;;;;;;4955148;29;20467;-68
2023/10/15 04:36:17;;;;;;;8.07;7.43;;;12.90;99.90;;;;;;4955018;28;20813;-68
2023/10/15 04:38:42;;;;;;;8.20;7.40;;;12.90;99.90;;;;;;4953891;29;20425;-68
2023/10/15 04:41:10;;;;;;;8.47;7.67;;;12.90;99.90;;;;;;4955488;28;20794;-68
2023/10/15 04:43:45;;;;;;;7.30;6.80;;;12.80;99.90;;;;;;4963878;28;20196;-68
2023/10/15 04:46:17;;;;;;;10.10;5.70;;;12.80;99.90;;;;;;4973704;28;20402;-68
2023/10/15 04:48:46;;;;;;;6.70;6.30;;;12.70;99.90;;;;;;4972887;28;20908;-68
2023/10/15 04:51:12;;;;;;;5.50;5.03;;;12.70;99.90;;;;;;4973426;28;21029;-68
2023/10/15 04:53:44;;;;;;;5.77;5.37;;;12.70;99.90;;;;;;4972404;28;20512;-68
2023/10/15 04:56:11;;;;;;;6.30;5.70;;;12.70;99.90;;;;;;4973676;28;20475;-68
2023/10/15 04:58:37;;;;;;;6.50;6.00;;;12.70;99.90;;;;;;4964980;28;20971;-68
2023/10/15 05:01:04;;;;;;;5.17;4.87;;;12.70;99.90;;;;;;4973424;28;20414;-68
2023/10/15 05:03:31;;;;;;;6.43;5.77;;;12.60;99.90;;;;;;4972656;28;20411;-68
2023/10/15 05:06:06;;;;;;;5.83;5.40;;;12.50;99.90;;;;;;4973294;28;20436;-68
2023/10/15 05:08:32;;;;;;;5.60;5.20;;;12.50;99.90;;;;;;4972698;28;20451;-68
2023/10/15 05:10:58;;;;;;;5.70;5.30;;;12.50;99.90;;;;;;4973522;28;20473;-68
2023/10/15 05:13:27;;;;;;;5.33;4.83;;;12.50;99.90;;;;;;4972111;28;20440;-68
2023/10/15 05:15:53;;;;;;;6.07;5.27;;;12.40;99.90;;;;;;4973073;28;20472;-68
2023/10/15 05:18:19;;;;;;;6.77;6.00;;;12.40;99.90;;;;;;4973493;28;20740;-68
2023/10/15 05:20:50;;;;;;;7.00;6.40;;;12.40;99.90;;;;;;4974372;28;20256;-68
2023/10/15 05:23:17;;;;;;;5.40;4.90;;;12.40;99.90;;;;;;4977703;28;20405;-68
2023/10/15 05:25:43;;;;;;;4.13;3.77;;;12.30;99.90;;;;;;4976774;28;20451;-67
2023/10/15 05:28:14;;;;;;;4.60;4.30;;;12.30;99.90;;;;;;4977064;28;20471;-67
2023/10/15 05:30:40;;;;;;;3.73;3.53;;;12.30;99.90;;;;;;4975978;28;20494;-68
2023/10/15 05:33:07;;;;;;;3.40;3.20;;;12.30;99.90;;;;;;4967320;28;20421;-68
2023/10/15 05:35:40;;;;;;;2.97;2.87;;;12.30;99.90;;;;;;4956908;28;20467;-67
2023/10/15 05:38:09;;;;;;;4.10;3.70;;;12.30;99.90;;;;;;4957903;29;20946;-68
2023/10/15 05:40:38;;;;;;;3.83;3.60;;;12.30;99.90;;;;;;4959605;28;20428;-68
2023/10/15 05:43:05;;;;;;;3.47;3.27;;;12.30;99.90;;;;;;4976225;28;20479;-68
2023/10/15 05:45:31;;;;;;;3.40;3.10;;;12.30;99.90;;;;;;4959443;28;20431;-68
2023/10/15 05:47:56;;;;;;;4.53;4.23;;;12.20;99.90;;;;;;4976521;28;20478;-68
2023/10/15 05:50:23;;;;;;;3.60;3.30;;;12.30;99.90;;;;;;4959821;28;20429;-61
2023/10/15 05:52:49;;;;;;;3.40;3.23;;;12.30;99.90;;;;;;4976876;28;20175;-67
2023/10/15 05:55:17;;;;;;;3.57;3.30;;;12.30;99.90;;;;;;4977179;28;20466;-68
2023/10/15 05:57:43;;;;;;;3.70;3.50;;;12.40;99.90;;;;;;4976409;28;21075;-68
2023/10/15 06:00:19;;;;;;;3.33;3.20;;;12.40;99.90;;;;;;4975454;28;20460;-68
2023/10/15 06:02:46;;;;;;;3.27;3.17;;;12.40;99.90;;;;;;4976170;28;20411;-68
2023/10/15 06:05:13;;;;;;;3.83;3.50;;;12.50;99.90;;;;;;4976505;28;20436;-68
2023/10/15 06:07:42;;;;;;;3.70;3.50;;;12.40;99.90;;;;;;4975908;28;20439;-68
2023/10/15 06:10:09;;;;;;;3.20;3.03;;;12.40;99.90;;;;;;4976606;28;20424;-68
2023/10/15 06:12:35;;;;;;;3.67;3.47;;;12.50;99.90;;;;;;4975740;28;20757;-68
2023/10/15 06:15:01;;;;;;;3.30;3.10;;;12.50;99.90;;;;;;4975810;28;20789;-68
2023/10/15 06:17:27;;;;;;;3.03;2.93;;;12.50;99.90;;;;;;4974929;28;20557;-61
2023/10/15 06:19:53;;;;;;;3.50;3.20;;;12.40;99.90;;;;;;4976453;28;20837;-68
2023/10/15 06:22:19;;;;;;;3.50;3.20;;;12.40;99.90;;;;;;4976018;28;20318;-68
2023/10/15 06:24:46;;;;;;;3.13;2.93;;;12.40;99.90;;;;;;4975738;28;20801;-68
2023/10/15 06:27:13;;;;;;;5.63;3.77;;;12.40;99.90;;;;;;4976109;28;20982;-68
2023/10/15 06:29:39;;;;;;;3.00;2.90;;;12.40;99.90;;;;;;4975252;28;20899;-68
2023/10/15 06:32:05;;;;;;;3.10;3.00;;;12.40;99.90;;;;;;4975274;28;20451;-68
2023/10/15 06:34:32;;;;;;;2.93;2.83;;;12.40;99.90;;;;;;4973830;28;20272;-68
2023/10/15 06:36:58;;;;;;;2.53;2.43;;;12.40;99.90;;;;;;4974139;28;20489;-68
2023/10/15 06:39:24;;;;;;;2.47;2.37;;;12.40;99.90;;;;;;4975185;28;20425;-65
2023/10/15 06:41:49;;;;;;;3.00;2.80;;;12.30;99.90;;;;;;4973795;28;20204;-68
2023/10/15 06:44:16;;;;;;;3.17;2.97;;;12.30;99.90;;;;;;4974917;28;20626;-68
2023/10/15 06:46:42;;;;;;;3.20;3.00;;;12.40;99.90;;;;;;4975712;28;20576;-68
2023/10/15 06:49:08;;;;;;;3.10;2.97;;;12.30;99.90;;;;;;4975505;28;20463;-68
2023/10/15 06:51:34;;;;;;;3.03;2.83;;;12.30;99.90;;;;;;4975431;28;20798;-67
2023/10/15 06:54:00;;;;;;;3.13;2.93;;;12.30;99.90;;;;;;4973707;28;20236;-75
2023/10/15 06:56:27;;;;;;;3.00;2.90;;;12.30;99.90;;;;;;4975311;28;20517;-66
2023/10/15 06:58:53;;;;;;;4.03;3.47;;;12.40;99.90;;;;;;4958915;28;20420;-72
2023/10/15 07:01:18;;;;;;;3.77;3.40;;;12.50;99.90;;;;;;4974511;28;20428;-73
2023/10/15 07:03:44;;;;;;;3.37;3.23;;;12.60;99.90;;;;;;4972275;28;20439;-69
2023/10/15 07:06:11;;;;;;;3.43;3.23;;;12.70;99.90;;;;;;4973583;28;20194;-72
2023/10/15 07:08:36;;;;;;;3.70;3.50;;;12.70;99.90;;;;;;4974448;28;20415;-71
2023/10/15 07:11:05;;;;;;;3.30;3.10;;;12.70;99.90;;;;;;4970645;28;20832;-73
2023/10/15 07:13:31;;;;;;;4.23;3.93;;;12.70;99.90;;;;;;4974472;28;20186;-65
2023/10/15 07:15:57;;;;;;;4.20;3.90;;;12.70;99.90;;;;;;4974167;28;20571;-72
2023/10/15 07:18:23;;;;;;;4.00;3.80;;;12.70;99.90;;;;;;4974984;28;20520;-72
2023/10/15 07:20:49;;;;;;;3.07;2.87;;;12.80;99.90;;;;;;4963180;28;20257;-72
2023/10/15 07:23:14;;;;;;;3.83;3.53;;;12.90;99.90;;;;;;4973898;28;20215;-67
2023/10/15 07:25:42;;;;;;;3.60;3.40;;;12.80;99.90;;;;;;4956535;28;20224;-66
2023/10/15 07:28:10;;;;;;;3.73;3.43;;;12.80;99.90;;;;;;4974340;28;20877;-58
2023/10/15 07:30:36;;;;;;;4.17;3.87;;;12.70;99.90;;;;;;4956672;28;20477;-58
2023/10/15 07:33:02;;;;;;;4.27;3.97;;;12.60;99.90;;;;;;4974607;28;20461;-58
2023/10/15 07:35:30;;;;;;;4.00;3.80;;;12.60;99.90;;;;;;4974514;28;20186;-67
2023/10/15 07:37:56;;;;;;;4.20;3.87;;;12.50;99.90;;;;;;4975205;28;20420;-68
2023/10/15 07:40:25;;;;;;;4.53;4.30;;;12.50;99.90;;;;;;4974514;28;20434;-70
2023/10/15 07:42:52;;;;;;;4.60;4.20;;;12.50;99.90;;;;;;4972516;28;20442;-68
2023/10/15 07:45:27;;;;;;;4.70;4.30;;;12.50;99.90;;;;;;4973724;28;20178;-70
2023/10/15 07:47:53;;;;;;;5.43;5.00;;;12.50;99.90;;;;;;4973418;28;20515;-73
2023/10/15 07:50:23;;;;;;;4.90;4.50;;;12.50;99.90;;;;;;4974692;28;20433;-68
2023/10/15 07:52:50;;;;;;;3.80;3.60;;;12.40;99.90;;;;;;4972374;28;20583;-75
2023/10/15 07:55:16;;;;;;;3.77;3.57;;;12.40;99.90;;;;;;4974992;28;20838;-75
2023/10/15 07:57:43;;;;;;;3.13;3.00;;;12.30;99.90;;;;;;4972798;28;20481;-67
2023/10/15 08:00:22;;;;;;;4.30;3.93;;;12.30;99.90;;;;;;4974478;28;20928;-67
2023/10/15 08:02:52;;;;;;;5.50;4.80;;;12.30;99.90;;;;;;4972529;28;20421;-66
2023/10/15 08:05:21;;;;;;;9.03;7.23;;;12.50;99.90;;;;;;4973514;28;20429;-66
2023/10/15 08:07:48;;;;;;;3.87;3.57;;;13.10;99.90;;;;;;4968933;28;20433;-66
2023/10/15 08:10:14;;;;;;;231.70;156.77;;;13.60;99.90;;;;;;4973920;28;20444;-67
2023/10/15 08:12:41;;;;;;;29.53;23.00;;;14.10;99.90;;;;;;4973168;28;20558;-66
2023/10/15 08:15:07;;;;;;;9.37;8.40;;;14.50;99.90;;;;;;4949682;28;20520;-66
2023/10/15 08:17:34;;;;;;;7.90;7.00;;;14.90;99.90;;;;;;4939778;28;20471;-65
2023/10/15 08:20:00;;;;;;;9.77;8.80;;;15.20;99.90;;;;;;4973856;28;20434;-66
2023/10/15 08:22:28;;;;;;;5.07;4.53;;;15.50;99.90;;;;;;4971968;28;20464;-65
2023/10/15 08:24:55;;;;;;;7.23;5.83;;;15.80;99.90;;;;;;4972392;28;20510;-66
2023/10/15 08:27:21;;;;;;;6.77;6.10;;;16.00;99.90;;;;;;4973921;28;20463;-66
2023/10/15 08:29:47;;;;;;;6.00;4.87;;;16.30;99.90;;;;;;4972250;28;20446;-66
2023/10/15 08:32:20;;;;;;;6.17;5.57;;;16.40;99.70;;;;;;4974289;28;20470;-67
2023/10/15 08:34:47;;;;;;;4.37;4.07;;;16.60;99.90;;;;;;4972501;28;20946;-66
2023/10/15 08:37:13;;;;;;;4.17;3.87;;;16.70;99.40;;;;;;4972617;28;20558;-67
2023/10/15 08:39:40;;;;;;;3.53;3.33;;;16.90;99.50;;;;;;4955514;28;20435;-66
2023/10/15 08:42:20;;;;;;;4.23;3.93;;;17.00;98.90;;;;;;4973250;28;20499;-66
2023/10/15 08:44:48;;;;;;;4.67;4.27;;;17.00;97.80;;;;;;4955890;28;20428;-66
2023/10/15 08:47:14;;;;;;;4.70;4.40;;;17.10;96.70;;;;;;4973275;28;20435;-66
2023/10/15 08:49:51;;;;;;;5.60;5.13;;;17.20;96.40;;;;;;4972704;28;20875;-66
2023/10/15 08:52:18;;;;;;;3.70;3.50;;;17.20;96.90;;;;;;4972481;28;20671;-66
2023/10/15 08:54:45;;;;;;;4.73;4.33;;;17.20;95.00;;;;;;4971774;28;20502;-66
2023/10/15 08:57:13;;;;;;;4.50;4.20;;;17.30;96.00;;;;;;4972355;28;20843;-66
2023/10/15 08:59:40;;;;;;;30.93;23.73;;;17.30;95.90;;;;;;4954961;28;20539;-66
2023/10/15 09:02:08;;;;;;;22.80;18.33;;;17.30;95.80;;;;;;4956001;28;20794;-66
2023/10/15 09:04:35;;;;;;;8.70;7.97;;;17.20;94.60;;;;;;4970762;28;20416;-63
2023/10/15 09:07:02;;;;;;;6.20;5.70;;;17.20;95.00;;;;;;4971382;28;20526;-66
2023/10/15 09:09:32;;;;;;;4.53;4.13;;;17.20;94.70;;;;;;4956417;28;20442;-66
2023/10/15 09:11:58;;;;;;;7.53;5.20;;;17.20;95.40;;;;;;4968327;28;20454;-66
2023/10/15 09:14:43;;;;;;;3.23;3.10;;;17.30;94.60;;;;;;4963635;28;20924;-66
2023/10/15 09:17:17;;;;;;;3.10;3.00;;;17.30;95.30;;;;;;4972695;28;20460;-66
2023/10/15 09:19:44;;;;;;;3.40;3.20;;;17.40;95.20;;;;;;4972143;28;20426;-66
2023/10/15 09:22:14;;;;;;;5.88;5.38;;;17.50;95.00;;;;;;4971335;28;20426;-66
2023/10/15 09:24:44;;;;;;;4.37;4.10;;;17.60;95.50;;;;;;4953771;28;20175;-63
2023/10/15 09:27:10;;;;;;;4.03;3.83;;;17.80;94.50;;;;;;4970292;28;20817;-66
2023/10/15 09:29:36;;;;;;;3.10;2.93;;;17.80;93.90;;;;;;4971028;28;20440;-63
2023/10/15 09:32:04;;;;;;;4.77;4.40;;;17.80;93.60;;;;;;4947039;28;20450;-73
2023/10/15 09:34:31;;;;;;;3.20;3.00;;;17.80;94.50;;;;;;4972802;28;21093;-66
2023/10/15 09:36:58;;;;;;;3.40;3.10;;;17.80;94.80;;;;;;4970521;28;20471;-66
2023/10/15 09:39:30;;;;;;;4.37;3.30;;;17.70;93.90;;;;;;4971077;28;20522;-66
2023/10/15 09:41:56;;;;;;;4.20;3.47;;;17.70;93.90;;;;;;4954853;28;20424;-66
2023/10/15 09:44:23;;;;;;;3.67;3.37;;;17.70;93.40;;;;;;4970408;28;20519;-66
2023/10/15 09:46:49;;;;;;;3.87;3.57;;;17.60;92.90;;;;;;4959509;28;20761;-66
2023/10/15 09:49:15;;;;;;;4.07;3.77;;;17.60;94.00;;;;;;4965932;28;20418;-67
2023/10/15 09:51:42;;;;;;;3.70;3.50;;;17.50;94.50;;;;;;4953620;28;20183;-68
2023/10/15 09:54:11;;;;;;;4.30;4.10;;;17.40;93.80;;;;;;4971085;28;20464;-67
2023/10/15 09:56:45;;;;;;;99.03;77.90;;;17.40;94.20;;;;;;4967998;28;20515;-67
2023/10/15 09:59:11;;;;;;;8.53;7.83;;;17.30;95.00;;;;;;4935208;28;20423;-67
2023/10/15 10:01:44;;;;;;;4.40;4.00;;;17.40;95.90;;;;;;4970036;28;20530;-66
2023/10/15 10:04:40;;;;;;;4.10;3.80;;;17.40;94.90;;;;;;4967604;28;20485;-66
2023/10/15 10:07:24;;;;;;;6.23;4.73;;;17.40;95.40;;;;;;4967344;28;20439;-66
2023/10/15 10:10:37;;;;;;;6.20;5.70;;;17.30;95.90;;;;;;4969618;28;20419;-66
2023/10/15 10:13:06;;;;;;;4.93;4.63;;;17.30;96.00;;;;;;4935235;28;20787;-67
2023/10/15 10:15:35;;;;;;;4.77;4.10;;;17.30;95.80;;;;;;4970498;28;20484;-66
2023/10/15 10:18:02;;;;;;;3.53;3.40;;;17.20;95.20;;;;;;4973184;28;20486;-67
2023/10/15 10:20:37;;;;;;;4.93;4.07;;;17.30;95.00;;;;;;4969780;28;20516;-66
2023/10/15 10:23:07;;;;;;;4.83;4.47;;;17.30;95.80;;;;;;4971905;28;20435;-66
2023/10/15 10:25:42;;;;;;;4.10;3.80;;;17.40;95.10;;;;;;4957632;28;20419;-66
2023/10/15 10:28:08;;;;;;;4.00;3.80;;;17.40;96.00;;;;;;4971281;28;20471;-67
2023/10/15 10:30:36;;;;;;;4.63;3.90;;;17.40;95.90;;;;;;4969095;28;20431;-67
2023/10/15 10:33:02;;;;;;;3.53;3.23;;;17.50;95.90;;;;;;4972729;28;20542;-70
2023/10/15 10:35:28;;;;;;;4.00;3.70;;;17.50;95.40;;;;;;4968235;28;20432;-69
2023/10/15 10:38:10;;;;;;;3.90;3.63;;;17.50;95.40;;;;;;4971737;28;20448;-70
2023/10/15 10:40:49;;;;;;;4.33;4.03;;;17.50;95.00;;;;;;4971235;28;20187;-70
2023/10/15 10:43:26;;;;;;;3.60;3.40;;;17.60;96.20;;;;;;4971689;28;20462;-69
2023/10/15 10:46:02;;;;;;;3.40;3.20;;;17.60;96.10;;;;;;4969968;28;20986;-68
2023/10/15 10:48:30;;;;;;;3.50;3.10;;;17.70;96.00;;;;;;4972074;28;20442;-68
2023/10/15 10:51:08;;;;;;;2.90;2.73;;;17.70;95.60;;;;;;4970483;28;20493;-68
2023/10/15 10:53:34;;;;;;;3.13;2.93;;;17.90;94.60;;;;;;4972542;28;20503;-68
2023/10/15 10:56:04;;;;;;;5.13;3.60;;;18.10;96.20;;;;;;4971648;28;20820;-68
2023/10/15 10:58:31;;;;;;;2.50;2.40;;;18.40;94.30;;;;;;4973543;28;20827;-67
2023/10/15 11:00:57;;;;;;;4.10;2.70;;;18.60;94.20;;;;;;4956318;28;20434;-68
2023/10/15 11:03:23;;;;;;;2.77;2.57;;;18.60;91.40;;;;;;4969119;28;20447;-68
2023/10/15 11:05:49;;;;;;;8.50;3.60;;;18.70;91.30;;;;;;4967178;28;20428;-67
2023/10/15 11:08:19;;;;;;;3.43;2.90;;;18.80;91.10;;;;;;4967003;28;20439;-68
2023/10/15 11:10:45;;;;;;;2.70;2.50;;;18.70;91.40;;;;;;4963070;28;20801;-69
2023/10/15 11:13:12;;;;;;;2.63;2.53;;;18.50;90.40;;;;;;4968982;28;20423;-69
2023/10/15 11:15:38;;;;;;;3.10;2.90;;;18.50;89.30;;;;;;4970120;28;20500;-69
2023/10/15 11:18:08;;;;;;;3.03;2.83;;;18.50;90.40;;;;;;4968215;28;20938;-69
2023/10/15 11:20:35;;;;;;;3.00;2.90;;;18.50;90.10;;;;;;4969785;28;20526;-69
2023/10/15 11:23:06;;;;;;;5.50;3.40;;;18.60;90.50;;;;;;4966979;28;20515;-69
2023/10/15 11:25:35;;;;;;;3.03;2.83;;;18.80;90.50;;;;;;4967707;28;20428;-68
2023/10/15 11:28:05;;;;;;;3.13;2.97;;;18.80;89.10;;;;;;4967905;28;20992;-69
2023/10/15 11:30:34;;;;;;;2.60;2.50;;;18.80;87.40;;;;;;4966185;28;20443;-69
2023/10/15 11:33:00;;;;;;;3.50;3.33;;;18.90;89.30;;;;;;4954970;28;20420;-68
2023/10/15 11:35:32;;;;;;;3.23;3.00;;;19.00;88.80;;;;;;4967915;28;20466;-68
2023/10/15 11:37:59;;;;;;;2.60;2.50;;;19.10;86.80;;;;;;4963752;28;20900;-68
2023/10/15 11:40:25;;;;;;;2.93;2.70;;;19.20;85.00;;;;;;4966875;28;20407;-69
2023/10/15 11:42:51;;;;;;;3.30;2.97;;;19.10;85.80;;;;;;4966459;28;20429;-68
2023/10/15 11:45:30;;;;;;;2.87;2.67;;;19.00;87.40;;;;;;4965103;28;20753;-68
2023/10/15 11:47:56;;;;;;;3.17;3.07;;;18.90;86.50;;;;;;4965463;28;20785;-68
2023/10/15 11:50:23;;;;;;;3.47;3.27;;;18.80;84.70;;;;;;4967336;28;20787;-69
2023/10/15 11:52:52;;;;;;;3.90;3.23;;;18.90;86.10;;;;;;4964755;28;20431;-68
2023/10/15 11:55:19;;;;;;;3.40;3.20;;;18.90;83.20;;;;;;4967465;28;20427;-68
2023/10/15 11:57:52;;;;;;;2.90;2.80;;;18.80;84.10;;;;;;4968222;28;20694;-68
2023/10/15 12:00:31;;;;;;;3.03;2.73;;;18.70;85.30;;;;;;4967570;28;20433;-69
2023/10/15 12:03:00;;;;;;;3.20;3.00;;;18.60;86.00;;;;;;4953994;28;20408;-68
2023/10/15 12:05:31;;;;;;;3.73;3.53;;;18.60;85.60;;;;;;4966236;28;20499;-68
2023/10/15 12:08:04;;;;;;;4.70;3.57;;;18.50;85.30;;;;;;4968866;28;20436;-68
2023/10/15 12:10:31;;;;;;;2.83;2.73;;;18.50;86.40;;;;;;4966695;28;20413;-68
2023/10/15 12:12:57;;;;;;;2.80;2.70;;;18.50;85.90;;;;;;4965690;28;20420;-68
2023/10/15 12:15:23;;;;;;;3.70;3.40;;;18.50;83.90;;;;;;4965406;28;20518;-68
2023/10/15 12:17:48;;;;;;;3.00;2.80;;;18.50;85.30;;;;;;4964358;28;20563;-68
2023/10/15 12:20:17;;;;;;;2.87;2.67;;;18.40;83.70;;;;;;4966247;28;20181;-68
2023/10/15 12:22:46;;;;;;;4.73;3.40;;;18.40;86.80;;;;;;4967759;28;20172;-68
2023/10/15 12:25:12;;;;;;;3.90;3.60;;;18.50;87.40;;;;;;4964108;28;20448;-69
2023/10/15 12:27:38;;;;;;;212.23;151.70;;;18.60;84.80;;;;;;4970131;28;20480;-68
2023/10/15 12:30:07;;;;;;;12.43;11.10;;;18.80;81.80;;;;;;4961953;28;20192;-69
2023/10/15 12:32:32;;;;;;;5.57;4.47;;;18.60;80.30;;;;;;4965956;28;20420;-68
2023/10/15 12:34:58;;;;;;;7.83;7.00;;;18.60;82.70;;;;;;4965395;28;20475;-69
2023/10/15 12:37:29;;;;;;;11.23;7.30;;;18.60;82.80;;;;;;4964512;28;20661;-68
2023/10/15 12:39:55;;;;;;;10.30;8.53;;;18.60;83.80;;;;;;4966351;28;20660;-68
2023/10/15 12:42:21;;;;;;;4.67;4.23;;;18.60;82.10;;;;;;4966212;28;20466;-69
2023/10/15 12:44:47;;;;;;;10.60;7.83;;;18.60;82.10;;;;;;4966671;28;20436;-66
2023/10/15 12:47:13;;;;;;;3.27;3.07;;;18.60;83.90;;;;;;4967119;28;20908;-68
2023/10/15 12:49:39;;;;;;;5.97;5.47;;;18.70;81.50;;;;;;4968638;28;20420;-69
2023/10/15 12:52:08;;;;;;;6.53;5.87;;;18.70;84.10;;;;;;4968596;28;20914;-70
2023/10/15 12:54:34;;;;;;;3.27;3.03;;;18.70;83.20;;;;;;4969396;28;20823;-66
2023/10/15 12:57:00;;;;;;;3.60;3.30;;;18.70;82.00;;;;;;4965975;28;20570;-66
2023/10/15 12:59:26;;;;;;;8.50;3.80;;;18.60;83.20;;;;;;4965524;28;20870;-66
2023/10/15 13:01:52;;;;;;;3.20;3.00;;;18.50;82.40;;;;;;4965583;28;20424;-66
2023/10/15 13:04:21;;;;;;;4.43;3.20;;;18.50;82.90;;;;;;4968480;28;20258;-66
2023/10/15 13:06:48;;;;;;;2.87;2.77;;;18.40;81.50;;;;;;4962015;28;20483;-65
2023/10/15 13:09:19;;;;;;;2.50;2.30;;;18.40;81.00;;;;;;4965599;28;20435;-66
2023/10/15 13:11:45;;;;;;;4.23;2.20;;;18.40;80.60;;;;;;4969454;28;20934;-66
2023/10/15 13:14:11;;;;;;;2.77;2.57;;;18.40;81.90;;;;;;4966932;28;20439;-66